Time;durP1;ratioP1;P1;durP2;ratioP2;P2;SDS_P1;SDS_P2;PMS_P1;PMS_P2;Temp;Humidity;BMP_temperature;BMP_pressure;BME280_temperature;BME280_humidity;BME280_pressure;Samples;Min_cycle;Max_cycle;Signal;HPM_P1;HPM_P2
2024/04/11 00:00:12;;;;;;;29.58;6.20;;;12.50;99.90;;;11.90;100.00;102782.59;4516559;26;20456;-58
2024/04/11 00:02:13;;;;;;;35.88;7.50;;;12.50;99.90;;;11.89;100.00;102792.34;4516656;26;20011;-58
2024/04/11 00:04:14;;;;;;;31.17;6.10;;;12.50;99.90;;;11.89;100.00;102791.50;4516322;26;20028;-58
2024/04/11 00:06:15;;;;;;;28.75;6.93;;;12.50;99.90;;;11.90;100.00;102791.38;4515860;26;20006;-58
2024/04/11 00:08:15;;;;;;;32.65;7.78;;;12.50;99.90;;;11.95;100.00;102780.44;4516082;26;20013;-58
2024/04/11 00:10:16;;;;;;;36.22;7.00;;;12.60;99.90;;;11.91;100.00;102785.16;4516205;26;20030;-58
2024/04/11 00:12:19;;;;;;;40.08;6.80;;;12.60;99.90;;;11.93;100.00;102777.94;4516364;26;20027;-58
2024/04/11 00:14:20;;;;;;;37.17;7.55;;;12.50;99.90;;;11.93;100.00;102761.22;4516147;26;20003;-58
2024/04/11 00:16:20;;;;;;;30.58;7.10;;;12.50;99.90;;;11.91;100.00;102757.84;4516089;26;20009;-58
2024/04/11 00:18:24;;;;;;;45.78;8.60;;;12.60;99.90;;;11.96;100.00;102753.91;4516128;26;20018;-58
2024/04/11 00:20:25;;;;;;;32.88;7.50;;;12.60;99.90;;;11.96;100.00;102755.69;4516468;26;20017;-58
2024/04/11 00:22:26;;;;;;;36.08;7.28;;;12.50;99.90;;;11.93;100.00;102754.13;4516115;26;19999;-58
2024/04/11 00:24:27;;;;;;;37.85;5.97;;;12.60;99.90;;;11.91;100.00;102756.06;4516113;26;20561;-58
2024/04/11 00:26:28;;;;;;;39.80;8.55;;;12.50;99.90;;;11.89;100.00;102763.25;4516223;26;20466;-58
2024/04/11 00:28:29;;;;;;;38.95;8.38;;;12.50;99.90;;;11.90;100.00;102759.66;4516252;26;20006;-58
2024/04/11 00:30:30;;;;;;;47.42;8.80;;;12.50;99.90;;;11.89;100.00;102771.19;4514489;26;20028;-58
2024/04/11 00:32:31;;;;;;;41.28;7.78;;;12.50;99.90;;;11.92;100.00;102776.25;4495418;26;20011;-58
2024/04/11 00:34:33;;;;;;;49.28;6.95;;;12.50;99.90;;;11.89;100.00;102771.19;4516094;26;20430;-58
2024/04/11 00:36:34;;;;;;;48.05;7.45;;;12.50;99.90;;;11.88;100.00;102769.50;4515893;26;19999;-58
2024/04/11 00:38:35;;;;;;;53.35;8.02;;;12.50;99.90;;;11.92;100.00;102776.25;4516032;26;20035;-58
2024/04/11 00:40:37;;;;;;;36.65;8.27;;;12.50;99.90;;;11.90;100.00;102762.31;4516232;26;20030;-58
2024/04/11 00:42:37;;;;;;;43.70;7.38;;;12.50;99.90;;;11.91;100.00;102765.78;4515746;26;20396;-58
2024/04/11 00:44:39;;;;;;;44.63;8.65;;;12.50;99.90;;;11.91;100.00;102753.41;4516368;26;20011;-58
2024/04/11 00:46:40;;;;;;;45.30;7.97;;;12.50;99.90;;;11.92;100.00;102757.72;4515937;26;20003;-58
2024/04/11 00:48:42;;;;;;;37.65;6.63;;;12.50;99.90;;;11.91;100.00;102758.72;4515779;26;20003;-58
2024/04/11 00:50:44;;;;;;;32.33;6.60;;;12.50;99.90;;;11.92;100.00;102763.03;4514908;26;20057;-58
2024/04/11 00:52:48;;;;;;;49.70;7.18;;;12.50;99.90;;;11.93;100.00;102748.00;4507755;26;20349;-56
2024/04/11 00:54:50;;;;;;;35.00;6.82;;;12.50;99.90;;;11.93;100.00;102748.00;4515875;26;20003;-56
2024/04/11 00:56:51;;;;;;;40.90;7.13;;;12.50;99.90;;;11.93;100.00;102740.91;4509618;26;20014;-58
2024/04/11 00:58:52;;;;;;;33.40;6.38;;;12.50;99.90;;;11.95;100.00;102735.50;4502399;26;20011;-56
2024/04/11 01:00:53;;;;;;;31.23;7.32;;;12.50;99.90;;;11.94;100.00;102737.31;4518727;26;19999;-58
2024/04/11 01:02:56;;;;;;;36.28;7.32;;;12.60;99.90;;;11.94;100.00;102742.59;4518640;26;20096;-58
2024/04/11 01:04:59;;;;;;;31.58;6.38;;;12.60;99.90;;;11.97;100.00;102742.38;4518733;26;20003;-58
2024/04/11 01:07:12;;;;;;;41.08;6.68;;;12.60;99.90;;;11.96;100.00;102740.69;4517881;26;20009;-58
2024/04/11 01:09:19;;;;;;;40.63;7.82;;;12.60;99.90;;;11.96;100.00;102738.03;4518505;26;20025;-58
2024/04/11 01:11:20;;;;;;;42.72;7.72;;;12.60;99.90;;;11.95;100.00;102743.44;4518674;26;20003;-58
2024/04/11 01:13:21;;;;;;;41.55;7.13;;;12.60;99.90;;;11.95;100.00;102738.13;4518626;26;20072;-58
2024/04/11 01:15:22;;;;;;;50.05;8.68;;;12.60;99.90;;;11.97;100.00;102738.88;4518682;26;19998;-58
2024/04/11 01:17:22;;;;;;;48.30;6.75;;;12.60;99.90;;;11.95;100.00;102736.34;4518684;26;20438;-57
2024/04/11 01:19:23;;;;;;;46.75;6.95;;;12.50;99.90;;;11.96;100.00;102735.38;4518491;26;19999;-58
2024/04/11 01:21:26;;;;;;;45.15;7.80;;;12.60;99.90;;;11.92;100.00;102741.00;4518220;26;19999;-59
2024/04/11 01:23:27;;;;;;;34.40;6.57;;;12.50;99.90;;;11.93;100.00;102738.25;4518518;26;20068;-58
2024/04/11 01:25:29;;;;;;;35.53;6.03;;;12.60;99.90;;;11.96;100.00;102737.19;4518510;26;20034;-58
2024/04/11 01:27:30;;;;;;;44.72;8.57;;;12.60;99.90;;;11.94;100.00;102732.03;4518393;26;20013;-58
2024/04/11 01:29:31;;;;;;;41.03;8.63;;;12.50;99.90;;;11.95;100.00;102728.41;4518509;26;19998;-58
2024/04/11 01:31:35;;;;;;;39.03;6.97;;;12.50;99.90;;;11.95;100.00;102740.78;4518494;26;20003;-58
2024/04/11 01:33:38;;;;;;;40.08;6.05;;;12.50;99.90;;;11.96;100.00;102743.31;4518314;26;20365;-58
2024/04/11 01:35:38;;;;;;;38.00;7.32;;;12.50;99.90;;;11.96;100.00;102748.63;4518398;26;20009;-58
2024/04/11 01:37:39;;;;;;;48.08;8.88;;;12.60;99.90;;;11.98;100.00;102759.06;4518151;26;20010;-58
2024/04/11 01:39:40;;;;;;;33.75;6.70;;;12.60;99.90;;;11.95;100.00;102762.78;4518494;26;20042;-58
2024/04/11 01:41:41;;;;;;;31.80;7.03;;;12.60;99.90;;;11.96;100.00;102764.47;4518192;26;19999;-58
2024/04/11 01:43:42;;;;;;;35.30;6.78;;;12.50;99.90;;;11.96;100.00;102751.25;4517978;26;20031;-58
2024/04/11 01:45:43;;;;;;;51.55;8.35;;;12.60;99.90;;;11.97;100.00;102752.09;4518189;26;20010;-58
2024/04/11 01:47:43;;;;;;;48.55;7.93;;;12.50;99.90;;;11.92;100.00;102741.84;4518367;26;19999;-57
2024/04/11 01:49:44;;;;;;;43.83;8.32;;;12.50;99.90;;;11.95;100.00;102744.28;4518138;26;20015;-58
2024/04/11 01:51:45;;;;;;;32.33;5.82;;;12.60;99.90;;;11.94;100.00;102750.53;4517570;26;20031;-58
2024/04/11 01:53:46;;;;;;;27.75;6.13;;;12.50;99.90;;;11.91;100.00;102737.56;4518021;26;20442;-58
2024/04/11 01:55:47;;;;;;;25.88;5.72;;;12.50;99.90;;;11.95;100.00;102746.91;4518033;26;20033;-57
2024/04/11 01:57:48;;;;;;;28.27;5.63;;;12.60;99.90;;;11.97;100.00;102747.66;4494693;26;20049;-58
2024/04/11 01:59:53;;;;;;;36.72;5.05;;;12.60;99.90;;;11.96;100.00;102743.31;4517532;26;20019;-58
2024/04/11 02:01:54;;;;;;;42.92;6.35;;;12.60;99.90;;;11.98;100.00;102751.13;4517708;26;20003;-58
2024/04/11 02:03:55;;;;;;;24.58;5.35;;;12.60;99.90;;;11.97;100.00;102747.66;4518174;26;20006;-58
2024/04/11 02:05:57;;;;;;;31.88;5.53;;;12.60;99.90;;;11.98;100.00;102754.63;4518151;26;20089;-58
2024/04/11 02:07:58;;;;;;;31.13;5.22;;;12.60;99.90;;;11.99;100.00;102745.75;4517293;26;20002;-58
2024/04/11 02:09:59;;;;;;;32.45;4.93;;;12.60;99.90;;;11.98;100.00;102754.63;4517989;26;20035;-57
2024/04/11 02:12:00;;;;;;;28.88;5.05;;;12.60;99.90;;;11.98;100.00;102757.25;4517821;26;20007;-58
2024/04/11 02:14:01;;;;;;;27.38;4.82;;;12.60;99.90;;;11.98;100.00;102754.63;4517879;26;20020;-58
2024/04/11 02:16:03;;;;;;;36.35;5.93;;;12.60;99.90;;;12.00;100.00;102755.38;4517752;26;20031;-58
2024/04/11 02:18:07;;;;;;;23.20;5.00;;;12.60;99.90;;;11.97;100.00;102749.47;4517805;26;20381;-58
2024/04/11 02:20:10;;;;;;;35.35;6.43;;;12.60;99.90;;;11.96;100.00;102756.53;4517948;26;20002;-58
2024/04/11 02:22:11;;;;;;;32.05;5.32;;;12.60;99.90;;;11.96;100.00;102758.34;4517529;26;20079;-58
2024/04/11 02:24:16;;;;;;;32.60;5.38;;;12.60;99.90;;;11.96;100.00;102756.53;4517704;26;20003;-57
2024/04/11 02:26:17;;;;;;;29.02;5.90;;;12.60;99.90;;;11.94;100.00;102755.84;4517690;26;20010;-58
2024/04/11 02:28:20;;;;;;;26.17;5.00;;;12.60;99.90;;;11.95;100.00;102759.28;4517696;26;20031;-58
2024/04/11 02:30:21;;;;;;;32.53;5.45;;;12.60;99.90;;;11.95;100.00;102748.72;4517559;26;20017;-58
2024/04/11 02:32:22;;;;;;;25.02;4.90;;;12.50;99.90;;;11.93;100.00;102753.28;4517568;26;19998;-58
2024/04/11 02:34:26;;;;;;;28.35;5.10;;;12.50;99.90;;;11.94;100.00;102752.34;4517675;26;20014;-58
2024/04/11 02:36:30;;;;;;;24.42;5.60;;;12.50;99.90;;;11.90;100.00;102749.06;4517429;26;20323;-56
2024/04/11 02:38:30;;;;;;;15.10;3.55;;;12.50;99.90;;;11.89;100.00;102754.47;4515375;26;20045;-58
2024/04/11 02:40:31;;;;;;;19.90;4.03;;;12.50;99.90;;;11.80;100.00;102756.00;4495121;26;20018;-58
2024/04/11 02:42:33;;;;;;;25.98;4.80;;;12.40;99.90;;;11.72;100.00;102753.09;4517161;26;20014;-58
2024/04/11 02:44:34;;;;;;;21.80;4.47;;;12.40;99.90;;;11.70;100.00;102748.88;4517607;26;20338;-58
2024/04/11 02:46:35;;;;;;;21.23;4.60;;;12.30;99.90;;;11.68;100.00;102740.19;4517547;26;20007;-58
2024/04/11 02:48:37;;;;;;;17.40;2.67;;;12.30;99.90;;;11.66;100.00;102742.94;4517467;26;19999;-57
2024/04/11 02:50:38;;;;;;;20.15;3.85;;;12.30;99.90;;;11.60;100.00;102738.97;4517460;26;20014;-58
2024/04/11 02:52:40;;;;;;;20.35;3.15;;;12.20;99.90;;;11.59;100.00;102733.78;4517355;26;20007;-58
2024/04/11 02:54:42;;;;;;;13.77;3.50;;;12.20;99.90;;;11.53;100.00;102727.16;4517033;26;20003;-58
2024/04/11 02:56:43;;;;;;;21.77;3.72;;;12.20;99.90;;;11.51;100.00;102722.94;4510117;26;20003;-58
2024/04/11 02:58:44;;;;;;;11.32;2.67;;;12.20;99.90;;;11.51;100.00;102726.44;4500488;26;20412;-58
2024/04/11 03:00:46;;;;;;;17.55;3.72;;;12.10;99.90;;;11.48;100.00;102729.31;4517450;26;20083;-58
2024/04/11 03:02:47;;;;;;;11.77;2.03;;;12.10;99.90;;;11.47;100.00;102727.59;4517237;26;20003;-58
2024/04/11 03:04:48;;;;;;;20.67;3.47;;;12.10;99.90;;;11.48;100.00;102728.44;4517331;26;20035;-58
2024/04/11 03:06:49;;;;;;;15.32;3.60;;;12.10;99.90;;;11.45;100.00;102731.31;4516879;26;20065;-58
2024/04/11 03:08:56;;;;;;;24.10;3.85;;;12.10;99.90;;;11.43;100.00;102734.09;4517366;26;20455;-58
2024/04/11 03:10:57;;;;;;;18.95;3.92;;;12.10;99.90;;;11.43;100.00;102727.97;4516743;26;19998;-58
2024/04/11 03:12:58;;;;;;;20.13;3.80;;;12.10;99.90;;;11.38;100.00;102733.56;4516588;26;20027;-59
2024/04/11 03:14:59;;;;;;;19.98;3.40;;;12.00;99.90;;;11.36;100.00;102740.78;4516902;26;20002;-58
2024/04/11 03:17:00;;;;;;;23.63;3.40;;;12.00;99.90;;;11.34;100.00;102741.84;4517257;26;20095;-58
2024/04/11 03:19:01;;;;;;;25.10;3.80;;;12.00;99.90;;;11.32;100.00;102741.94;4517349;26;20006;-58
2024/04/11 03:21:02;;;;;;;18.42;4.72;;;12.00;99.90;;;11.31;100.00;102748.19;4516975;26;20031;-58
2024/04/11 03:23:03;;;;;;;22.20;3.90;;;11.90;99.90;;;11.31;100.00;102755.28;4517031;26;20010;-57
2024/04/11 03:25:04;;;;;;;23.67;4.55;;;11.90;99.90;;;11.25;100.00;102755.72;4517180;26;19999;-58
2024/04/11 03:27:07;;;;;;;13.98;4.05;;;11.90;99.90;;;11.19;100.00;102753.53;4516906;26;20006;-58
2024/04/11 03:29:08;;;;;;;23.67;3.97;;;11.90;99.90;;;11.15;100.00;102757.31;4517190;26;20438;-57
2024/04/11 03:31:13;;;;;;;19.63;3.30;;;11.80;99.90;;;11.13;100.00;102767.16;4516995;26;20007;-58
2024/04/11 03:33:13;;;;;;;17.42;3.15;;;11.80;99.90;;;11.13;100.00;102762.72;4516904;26;19999;-58
2024/04/11 03:35:16;;;;;;;13.23;2.72;;;11.80;99.90;;;11.18;100.00;102770.31;4515112;26;20002;-58
2024/04/11 03:37:17;;;;;;;23.80;4.30;;;11.80;99.90;;;11.20;100.00;102766.59;4516557;26;20462;-58
2024/04/11 03:39:20;;;;;;;13.90;2.95;;;11.80;99.90;;;11.23;100.00;102762.94;4516883;26;19999;-58
2024/04/11 03:41:20;;;;;;;21.02;2.78;;;11.80;99.90;;;11.25;100.00;102775.06;4516968;26;20002;-58
2024/04/11 03:43:22;;;;;;;11.75;3.15;;;11.90;99.90;;;11.28;100.00;102774.84;4516670;26;20010;-58
2024/04/11 03:45:22;;;;;;;14.68;3.10;;;11.90;99.90;;;11.31;100.00;102776.41;4516862;26;20034;-58
2024/04/11 03:47:23;;;;;;;20.67;2.97;;;11.90;99.90;;;11.30;100.00;102777.34;4516712;26;20430;-58
2024/04/11 03:49:24;;;;;;;16.80;2.40;;;11.90;99.90;;;11.30;100.00;102777.34;4516789;26;20129;-58
2024/04/11 03:51:30;;;;;;;22.67;4.10;;;11.90;99.90;;;11.26;100.00;102776.72;4516114;26;20423;-58
2024/04/11 03:53:30;;;;;;;16.23;3.28;;;11.90;99.90;;;11.24;100.00;102777.78;4516664;26;19998;-58
2024/04/11 03:55:31;;;;;;;21.95;4.50;;;11.80;99.90;;;11.21;100.00;102778.03;4516423;26;20441;-58
2024/04/11 03:57:33;;;;;;;22.10;4.80;;;11.80;99.90;;;11.18;100.00;102783.53;4497010;26;20046;-58
2024/04/11 03:59:36;;;;;;;16.58;3.30;;;11.80;99.90;;;11.15;100.00;102771.38;4512069;26;20003;-57
2024/04/11 04:01:37;;;;;;;21.73;3.90;;;11.80;99.90;;;11.13;100.00;102768.03;4516472;26;20422;-58
2024/04/11 04:03:42;;;;;;;24.80;3.97;;;11.80;99.90;;;11.13;100.00;102760.09;4516433;26;20009;-58
2024/04/11 04:05:43;;;;;;;15.68;3.10;;;11.80;99.90;;;11.15;100.00;102770.53;4516326;26;20010;-58
2024/04/11 04:07:44;;;;;;;23.33;3.63;;;11.80;99.90;;;11.17;100.00;102774.75;4515837;26;20003;-58
2024/04/11 04:09:44;;;;;;;19.10;4.05;;;11.80;99.90;;;11.21;100.00;102775.38;4516503;26;19999;-57
2024/04/11 04:11:45;;;;;;;23.73;3.47;;;11.80;99.90;;;11.21;100.00;102778.88;4516399;26;20022;-58
2024/04/11 04:13:50;;;;;;;23.73;3.65;;;11.80;99.90;;;11.24;100.00;102788.38;4516491;26;20014;-58
2024/04/11 04:15:53;;;;;;;18.00;3.28;;;11.80;99.90;;;11.24;100.00;102778.66;4516237;26;20011;-58
2024/04/11 04:17:57;;;;;;;22.43;5.33;;;11.90;99.90;;;11.26;100.00;102776.72;4516356;26;20031;-58
2024/04/11 04:19:57;;;;;;;13.50;3.10;;;11.80;99.90;;;11.25;100.00;102775.06;4516381;26;20232;-58
2024/04/11 04:21:59;;;;;;;23.20;3.80;;;11.90;99.90;;;11.27;100.00;102772.28;4515957;26;20367;-58
2024/04/11 04:24:02;;;;;;;17.73;3.00;;;11.90;99.90;;;11.27;100.00;102774.94;4516125;26;20003;-58
2024/04/11 04:26:05;;;;;;;21.33;3.97;;;11.90;99.90;;;11.27;100.00;102783.72;4519047;26;20035;-58
2024/04/11 04:28:07;;;;;;;18.20;3.05;;;11.90;99.90;;;11.27;100.00;102769.66;4518994;26;19999;-57
2024/04/11 04:30:09;;;;;;;20.10;2.72;;;11.90;99.90;;;11.29;100.00;102775.69;4519046;26;20056;-58
2024/04/11 04:32:14;;;;;;;14.13;3.58;;;11.90;99.90;;;11.28;100.00;102774.00;4519125;26;20025;-58
2024/04/11 04:34:15;;;;;;;21.50;3.88;;;11.90;99.90;;;11.27;100.00;102767.84;4519142;26;20002;-56
2024/04/11 04:36:28;;;;;;;21.83;3.83;;;11.90;99.90;;;11.29;100.00;102775.69;4518719;26;19998;-58
2024/04/11 04:38:29;;;;;;;24.95;4.18;;;11.90;99.90;;;11.26;100.00;102776.72;4518965;26;20017;-58
2024/04/11 04:40:30;;;;;;;14.70;4.20;;;11.90;99.90;;;11.25;100.00;102771.56;4518995;26;20027;-58
2024/04/11 04:42:31;;;;;;;20.73;5.55;;;11.90;99.90;;;11.24;100.00;102756.66;4518715;26;20026;-58
2024/04/11 04:44:32;;;;;;;12.75;2.90;;;11.90;99.90;;;11.22;100.00;102763.88;4519107;26;19999;-58
2024/04/11 04:46:34;;;;;;;25.50;6.25;;;11.90;99.90;;;11.19;100.00;102770.22;4518739;26;20053;-58
2024/04/11 04:48:35;;;;;;;18.23;3.22;;;11.80;99.90;;;11.10;100.00;102758.53;4518925;26;20061;-57
2024/04/11 04:50:36;;;;;;;19.42;3.22;;;11.80;99.90;;;10.99;100.00;102755.78;4518846;26;20026;-58
2024/04/11 04:52:38;;;;;;;14.15;3.22;;;11.60;99.90;;;10.86;100.00;102762.91;4518697;26;20017;-58
2024/04/11 04:54:39;;;;;;;16.77;3.78;;;11.50;99.90;;;10.76;100.00;102768.94;4518655;26;20002;-58
2024/04/11 04:56:41;;;;;;;12.98;2.90;;;11.40;99.90;;;10.63;100.00;102771.59;4512480;26;20442;-58
2024/04/11 04:58:43;;;;;;;13.15;3.28;;;11.30;99.90;;;10.52;100.00;102774.13;4501667;26;19999;-58
2024/04/11 05:00:45;;;;;;;14.63;3.63;;;11.20;99.90;;;10.45;100.00;102778.16;4518515;26;20002;-58
2024/04/11 05:02:46;;;;;;;15.23;2.70;;;11.10;99.90;;;10.38;100.00;102782.16;4518731;26;20018;-58
2024/04/11 05:04:49;;;;;;;18.35;3.97;;;11.00;99.90;;;10.36;100.00;102786.69;4518493;26;20019;-58
2024/04/11 05:06:52;;;;;;;11.88;2.38;;;11.00;99.90;;;10.36;100.00;102794.63;4518172;26;20071;-58
2024/04/11 05:08:56;;;;;;;14.10;3.80;;;11.00;99.90;;;10.40;100.00;102796.06;4518478;26;20330;-58
2024/04/11 05:10:56;;;;;;;24.40;3.30;;;11.00;99.90;;;10.44;100.00;102798.41;4518734;26;19999;-58
2024/04/11 05:12:59;;;;;;;17.73;3.97;;;11.00;99.90;;;10.50;100.00;102799.78;4518397;26;20022;-58
2024/04/11 05:15:12;;;;;;;21.25;4.47;;;11.10;99.90;;;10.57;100.00;102803.69;4518603;26;20003;-58
2024/04/11 05:17:13;;;;;;;20.60;4.30;;;11.10;99.90;;;10.60;100.00;102811.41;4518529;26;19998;-58
2024/04/11 05:19:15;;;;;;;18.02;3.50;;;11.20;99.90;;;10.58;100.00;102805.38;4518591;26;20026;-58
2024/04/11 05:21:19;;;;;;;10.23;2.67;;;11.20;99.90;;;10.49;100.00;102800.72;4518070;26;20014;-58
2024/04/11 05:23:20;;;;;;;19.38;3.70;;;11.10;99.90;;;10.46;100.00;102820.25;4518528;26;20013;-58
2024/04/11 05:25:21;;;;;;;19.85;4.93;;;11.10;99.90;;;10.44;100.00;102823.94;4518666;26;20031;-58
2024/04/11 05:27:23;;;;;;;10.45;2.88;;;11.10;99.90;;;10.40;100.00;102818.03;4518506;26;20003;-57
2024/04/11 05:29:25;;;;;;;14.88;3.55;;;11.00;99.90;;;10.39;100.00;102821.59;4518631;26;20034;-58
2024/04/11 05:31:26;;;;;;;17.80;4.18;;;11.00;99.90;;;10.38;100.00;102814.66;4520357;26;20030;-58
2024/04/11 05:33:26;;;;;;;18.48;4.20;;;11.00;99.90;;;10.36;100.00;102815.72;4523021;26;19999;-57
2024/04/11 05:35:27;;;;;;;17.60;5.28;;;11.00;99.90;;;10.33;100.00;102822.06;4518270;26;20007;-58
2024/04/11 05:37:29;;;;;;;24.92;4.05;;;11.00;99.90;;;10.33;100.00;102821.19;4517320;26;20361;-58
2024/04/11 05:39:33;;;;;;;19.75;4.07;;;11.00;99.90;;;10.33;100.00;102821.19;4518397;26;20009;-58
2024/04/11 05:41:34;;;;;;;24.05;5.15;;;11.00;99.90;;;10.36;100.00;102827.09;4518189;26;20007;-58
2024/04/11 05:43:49;;;;;;;23.45;5.03;;;11.00;99.90;;;10.40;100.00;102827.72;4517797;26;20021;-58
2024/04/11 05:45:50;;;;;;;14.35;3.00;;;11.00;99.90;;;10.42;100.00;102824.03;4518327;26;20015;-56
2024/04/11 05:47:51;;;;;;;21.02;4.07;;;11.00;99.90;;;10.45;100.00;102831.75;4518291;26;20445;-58
2024/04/11 05:49:53;;;;;;;15.98;3.95;;;11.10;99.90;;;10.48;100.00;102836.81;4518287;26;20027;-58
2024/04/11 05:51:55;;;;;;;9.80;2.80;;;11.10;99.90;;;10.52;100.00;102843.59;4517987;26;20027;-58
2024/04/11 05:53:57;;;;;;;15.05;3.78;;;11.10;99.90;;;10.56;100.00;102846.88;4518206;26;20002;-58
2024/04/11 05:55:58;;;;;;;18.80;4.18;;;11.20;99.90;;;10.60;100.00;102840.44;4517377;26;20012;-58
2024/04/11 05:57:59;;;;;;;15.60;3.60;;;11.20;99.90;;;10.65;100.00;102834.81;4518000;26;20074;-58
2024/04/11 06:00:00;;;;;;;25.50;5.57;;;11.20;99.90;;;10.71;100.00;102835.25;4517952;26;20014;-57
2024/04/11 06:02:01;;;;;;;21.20;4.50;;;11.30;99.90;;;10.76;100.00;102830.50;4518109;26;20031;-58
2024/04/11 06:04:05;;;;;;;20.60;4.35;;;11.30;99.90;;;10.84;100.00;102835.25;4518101;26;20003;-58
2024/04/11 06:06:08;;;;;;;14.68;4.22;;;11.40;99.90;;;10.89;100.00;102831.34;4517724;26;20430;-58
2024/04/11 06:08:09;;;;;;;21.02;5.40;;;11.40;99.90;;;10.94;100.00;102842.41;4517591;26;20006;-58
2024/04/11 06:10:11;;;;;;;16.13;3.90;;;11.50;99.90;;;10.96;100.00;102851.06;4517979;26;19998;-58
2024/04/11 06:12:12;;;;;;;16.27;4.10;;;11.50;99.90;;;11.03;100.00;102859.41;4517975;26;20013;-58
2024/04/11 06:14:13;;;;;;;17.90;5.00;;;11.60;99.90;;;11.04;100.00;102851.41;4518021;26;20023;-57
2024/04/11 06:16:18;;;;;;;9.65;3.40;;;11.60;99.90;;;11.09;100.00;102857.19;4517925;26;20027;-58
2024/04/11 06:18:19;;;;;;;14.45;3.08;;;11.60;99.90;;;11.09;100.00;102859.84;4517790;26;20350;-58
2024/04/11 06:20:24;;;;;;;13.80;3.70;;;11.60;99.90;;;11.09;100.00;102857.19;4517749;26;20010;-58
2024/04/11 06:22:26;;;;;;;11.35;4.50;;;11.60;99.90;;;11.05;100.00;102863.63;4517522;26;20013;-58
2024/04/11 06:24:26;;;;;;;12.70;4.15;;;11.60;99.90;;;11.01;100.00;102867.47;4517702;26;20123;-57
2024/04/11 06:26:27;;;;;;;9.98;3.75;;;11.50;99.90;;;10.95;100.00;102859.97;4517860;26;20470;-58
2024/04/11 06:28:28;;;;;;;14.07;4.53;;;11.50;99.90;;;10.92;100.00;102864.59;4517670;26;20010;-58
2024/04/11 06:30:30;;;;;;;12.93;4.47;;;11.40;99.90;;;10.87;100.00;102858.81;4517688;26;20054;-58
2024/04/11 06:32:31;;;;;;;20.48;6.47;;;11.40;99.90;;;10.84;100.00;102854.56;4517727;26;20010;-58
2024/04/11 06:34:33;;;;;;;13.90;5.53;;;11.40;99.90;;;10.77;100.00;102853.31;4517719;26;20010;-57
2024/04/11 06:36:34;;;;;;;13.70;4.38;;;11.30;99.90;;;10.74;100.00;102866.72;4517348;26;20482;-58
2024/04/11 06:38:35;;;;;;;15.68;4.68;;;11.30;99.90;;;10.70;100.00;102859.94;4517521;26;19998;-58
2024/04/11 06:40:38;;;;;;;9.55;3.28;;;11.20;99.90;;;10.72;100.00;102865.97;4517433;26;20040;-58
2024/04/11 06:42:49;;;;;;;18.92;4.55;;;11.20;99.90;;;10.66;100.00;102858.50;4516927;26;19998;-58
2024/04/11 06:44:50;;;;;;;11.20;3.40;;;11.20;99.90;;;10.66;100.00;102853.22;4517778;26;20014;-58
2024/04/11 06:46:51;;;;;;;17.33;4.05;;;11.20;99.90;;;10.67;100.00;102852.25;4517447;26;20003;-58
2024/04/11 06:48:57;;;;;;;16.38;4.05;;;11.20;99.90;;;10.68;100.00;102853.94;4516170;26;19999;-58
2024/04/11 06:50:58;;;;;;;12.13;3.25;;;11.20;99.90;;;10.74;100.00;102858.81;4517356;26;20003;-58
2024/04/11 06:53:04;;;;;;;10.63;3.00;;;11.20;99.90;;;10.78;100.00;102862.91;4517642;26;20002;-58
2024/04/11 06:55:08;;;;;;;12.45;2.65;;;11.20;99.90;;;10.83;100.00;102874.00;4517320;26;20507;-58
2024/04/11 06:57:11;;;;;;;16.70;6.72;;;11.30;99.90;;;10.87;100.00;102864.91;4517577;26;20002;-58
2024/04/11 06:59:17;;;;;;;21.20;6.75;;;11.30;99.90;;;10.89;100.00;102868.31;4517523;26;20439;-58
2024/04/11 07:01:18;;;;;;;18.05;5.88;;;11.30;99.90;;;10.92;100.00;102869.88;4517457;26;19999;-58
2024/04/11 07:03:26;;;;;;;15.32;4.80;;;11.40;99.90;;;10.96;100.00;102869.56;4517345;26;19999;-57
2024/04/11 07:09:37;;;;;;;15.93;5.60;;;11.50;99.90;;;11.01;100.00;102864.81;4507847;26;20013;-58
2024/04/11 07:11:41;;;;;;;14.10;5.18;;;11.50;99.90;;;11.00;100.00;102863.13;4517097;26;20067;-58
2024/04/11 07:13:42;;;;;;;14.93;5.57;;;11.50;99.90;;;11.01;100.00;102856.03;4516944;26;20002;-58
2024/04/11 07:15:43;;;;;;;14.93;4.63;;;11.50;99.90;;;11.01;100.00;102851.63;4516841;26;19999;-58
2024/04/11 07:17:56;;;;;;;23.88;5.22;;;11.50;99.90;;;11.03;100.00;102854.97;4516505;26;20363;-58
2024/04/11 07:19:58;;;;;;;15.15;3.28;;;11.50;99.90;;;11.02;100.00;102850.63;4516742;26;20030;-57
2024/04/11 07:21:59;;;;;;;16.45;3.90;;;11.60;99.90;;;11.06;100.00;102853.91;4516965;26;19999;-58
2024/04/11 07:24:03;;;;;;;17.95;3.88;;;11.60;99.90;;;11.10;100.00;102856.25;4517371;26;20039;-58
2024/04/11 07:26:07;;;;;;;15.40;3.78;;;11.60;99.90;;;11.09;100.00;102859.84;4516932;26;20026;-58
2024/04/11 07:28:08;;;;;;;17.63;5.47;;;11.60;99.90;;;11.14;100.00;102858.69;4517046;26;20322;-58
2024/04/11 07:30:11;;;;;;;16.30;3.38;;;11.70;99.90;;;11.17;100.00;102867.19;4516818;26;19998;-58
2024/04/11 07:32:12;;;;;;;19.55;4.05;;;11.70;99.90;;;11.22;100.00;102861.63;4516927;26;20387;-58
2024/04/11 07:34:14;;;;;;;17.30;3.63;;;11.70;99.90;;;11.30;100.00;102872.47;4516872;26;20010;-57
2024/04/11 07:36:17;;;;;;;27.77;5.22;;;11.80;99.90;;;11.39;100.00;102871.81;4515696;26;20013;-57
2024/04/11 07:38:19;;;;;;;9.10;3.00;;;11.90;99.90;;;11.44;100.00;102869.72;4516170;26;19998;-58
2024/04/11 07:40:32;;;;;;;20.88;4.45;;;12.00;99.90;;;11.49;100.00;102873.72;4516317;26;19998;-58
2024/04/11 07:42:54;;;;;;;27.98;4.90;;;12.00;99.90;;;11.59;100.00;102871.22;4500049;26;19991;-58
2024/04/11 07:44:55;;;;;;;16.83;4.25;;;12.10;99.90;;;11.65;100.00;102879.56;4501466;26;20034;-58
2024/04/11 07:46:58;;;;;;;20.30;4.40;;;12.20;99.90;;;11.75;100.00;102881.56;4529092;26;20034;-57
2024/04/11 07:48:59;;;;;;;17.25;3.30;;;12.30;99.90;;;11.82;100.00;102883.69;4518893;26;20067;-58
2024/04/11 07:51:05;;;;;;;13.85;4.25;;;12.40;99.90;;;11.93;100.00;102882.88;4516476;26;20262;-58
2024/04/11 07:53:15;;;;;;;11.55;3.30;;;12.50;99.90;;;12.04;100.00;102878.47;4516587;26;20014;-58
2024/04/11 07:55:16;;;;;;;13.43;2.40;;;12.50;99.90;;;12.15;100.00;102891.78;4516536;26;20426;-58
2024/04/11 07:57:17;;;;;;;21.05;3.40;;;12.60;99.90;;;12.25;100.00;102896.34;4516266;26;20054;-58
2024/04/11 07:59:17;;;;;;;20.63;4.80;;;12.70;99.90;;;12.33;100.00;102888.72;4512723;26;20019;-57
2024/04/11 08:01:36;;;;;;;18.60;3.45;;;12.80;99.90;;;12.43;100.00;102887.03;4517243;26;20034;-58
2024/04/11 08:03:37;;;;;;;14.63;3.25;;;12.90;99.90;;;12.59;100.00;102883.13;4518230;26;20069;-58
2024/04/11 08:05:38;;;;;;;16.15;3.72;;;13.00;99.90;;;12.75;100.00;102893.41;4518405;26;20044;-58
2024/04/11 08:07:42;;;;;;;16.48;4.25;;;13.10;99.90;;;12.72;100.00;102889.16;4517905;26;20017;-58
2024/04/11 08:09:55;;;;;;;;;;;13.20;99.90;;;12.69;100.00;102892.03;4518794;26;20009;-58
2024/04/11 08:11:56;;;;;;;16.80;2.58;;;13.20;99.90;;;12.63;100.00;102889.88;4518360;26;20010;-58
2024/04/11 08:14:00;;;;;;;16.67;3.10;;;13.20;99.90;;;12.63;100.00;102875.81;4518299;26;20074;-58
2024/04/11 08:16:00;;;;;;;;;;;13.10;99.90;;;12.61;100.00;102873.25;4519897;26;19999;-57
2024/04/11 08:18:04;;;;;;;19.02;3.47;;;13.10;99.90;;;12.71;100.00;102886.66;4519285;26;19953;-58
2024/04/11 08:20:12;;;;;;;14.35;3.03;;;13.20;99.90;;;12.78;100.00;102890.53;4519489;26;20009;-58
2024/04/11 08:22:13;;;;;;;14.27;3.63;;;13.30;99.90;;;12.77;100.00;102879.09;4519201;26;20017;-58